createdAt,value
2019-04-26T00:00:49.753Z,16.71
2019-04-26T00:03:20.050Z,16.52
2019-04-26T00:05:48.747Z,16.31
2019-04-26T00:08:17.949Z,16.23
2019-04-26T00:10:57.238Z,16.03
2019-04-26T00:13:33.246Z,16.16
2019-04-26T00:16:03.831Z,15.77
2019-04-26T00:18:32.631Z,16.17
2019-04-26T00:21:01.330Z,15.52
2019-04-26T00:23:30.757Z,15.92
2019-04-26T00:25:59.625Z,16.10
2019-04-26T00:28:28.320Z,16.21
2019-04-26T00:30:57.060Z,16.31
2019-04-26T00:33:25.757Z,16.26
2019-04-26T00:35:54.459Z,16.26
2019-04-26T00:38:23.288Z,16.21
2019-04-26T00:40:52.885Z,16.06
2019-04-26T00:43:22.685Z,16.03
2019-04-26T00:45:52.785Z,16.17
2019-04-26T00:48:23.848Z,16.26
2019-04-26T00:50:53.649Z,16.19
2019-04-26T00:53:24.405Z,16.22
2019-04-26T00:55:53.900Z,16.00
2019-04-26T00:58:24.463Z,16.20
2019-04-26T01:00:53.845Z,16.07
2019-04-26T01:03:22.813Z,16.19
2019-04-26T01:05:59.820Z,16.07
2019-04-26T01:08:21.978Z,16.12
2019-04-26T01:10:50.683Z,16.13
2019-04-26T01:13:19.946Z,16.16
2019-04-26T01:15:49.097Z,15.86
2019-04-26T01:18:18.219Z,15.75
2019-04-26T01:20:49.316Z,15.70
2019-04-26T01:23:20.941Z,15.78
2019-04-26T01:26:12.021Z,15.85
2019-04-26T01:28:43.652Z,15.69
2019-04-26T01:31:13.763Z,15.65
2019-04-26T01:33:44.639Z,15.91
2019-04-26T01:36:13.862Z,15.97
2019-04-26T01:38:44.408Z,15.96
2019-04-26T01:41:17.149Z,15.83
2019-04-26T01:43:54.879Z,15.56
2019-04-26T01:46:33.979Z,15.20
2019-04-26T01:49:08.288Z,15.62
2019-04-26T01:51:45.340Z,15.57
2019-04-26T01:54:16.936Z,15.69
2019-04-26T01:56:46.531Z,15.58
2019-04-26T01:59:17.288Z,15.47
2019-04-26T02:02:02.998Z,15.46
2019-04-26T02:04:33.524Z,15.42
2019-04-26T02:07:02.595Z,15.58
2019-04-26T02:09:31.390Z,15.70
2019-04-26T02:12:00.737Z,15.71
2019-04-26T02:14:29.536Z,15.40
2019-04-26T02:16:59.058Z,15.58
2019-04-26T02:19:27.721Z,15.59
2019-04-26T02:22:07.010Z,15.21
2019-04-26T02:24:37.304Z,14.79
2019-04-26T02:27:07.669Z,14.98
2019-04-26T02:29:36.293Z,14.99
2019-04-26T02:32:07.432Z,15.31
2019-04-26T02:34:38.050Z,15.04
2019-04-26T02:37:10.205Z,15.30
2019-04-26T02:39:41.221Z,15.05
2019-04-26T02:42:31.005Z,15.37
2019-04-26T02:45:04.015Z,15.47
2019-04-26T02:47:39.028Z,15.42
2019-04-26T02:50:14.686Z,15.40
2019-04-26T02:52:48.902Z,15.41
2019-04-26T02:55:42.413Z,15.21
2019-04-26T02:58:12.477Z,15.41
2019-04-26T03:00:42.522Z,15.35
2019-04-26T03:03:12.047Z,15.37
2019-04-26T03:05:42.848Z,15.27
2019-04-26T03:08:14.447Z,15.43
2019-04-26T03:10:45.239Z,15.43
2019-04-26T03:13:18.413Z,15.46
2019-04-26T03:15:51.615Z,15.13
2019-04-26T03:18:41.565Z,15.06
2019-04-26T03:21:28.729Z,15.21
2019-04-26T03:24:00.334Z,15.23
2019-04-26T03:26:52.787Z,15.33
2019-04-26T03:29:27.040Z,14.26
2019-04-26T03:32:16.628Z,14.77
2019-04-26T03:34:54.943Z,14.58
2019-04-26T03:37:33.744Z,14.79
2019-04-26T03:40:18.042Z,15.01
2019-04-26T03:43:04.626Z,14.84
2019-04-26T03:45:40.882Z,14.77
2019-04-26T03:48:27.444Z,14.87
2019-04-26T03:51:08.014Z,14.78
2019-04-26T03:53:40.404Z,14.87
2019-04-26T03:56:17.424Z,14.89
2019-04-26T03:59:02.223Z,15.06
2019-04-26T04:01:39.579Z,15.31
2019-04-26T04:04:11.979Z,15.36
2019-04-26T04:06:56.735Z,15.38
2019-04-26T04:09:11.716Z,15.28
2019-04-26T04:11:49.920Z,15.04
2019-04-26T04:14:27.410Z,15.22
2019-04-26T04:17:09.291Z,15.14
2019-04-26T04:19:54.265Z,15.33
2019-04-26T04:22:25.744Z,15.28
2019-04-26T04:25:06.459Z,15.43
2019-04-26T04:27:47.956Z,15.57
2019-04-26T04:30:20.394Z,15.50
2019-04-26T04:33:24.840Z,15.56
2019-04-26T04:35:56.454Z,15.56
2019-04-26T04:38:34.006Z,15.70
2019-04-26T04:41:22.284Z,15.74
2019-04-26T04:44:16.413Z,15.77
2019-04-26T04:47:23.644Z,15.58
2019-04-26T04:49:59.461Z,15.31
2019-04-26T04:52:33.663Z,15.64
2019-04-26T04:55:24.637Z,15.70
2019-04-26T04:58:05.256Z,15.84
2019-04-26T05:01:11.253Z,15.95
2019-04-26T05:03:46.974Z,15.82
2019-04-26T05:06:41.133Z,15.99
2019-04-26T05:09:12.742Z,15.71
2019-04-26T05:11:59.030Z,15.99
2019-04-26T05:14:33.592Z,15.95
2019-04-26T05:17:16.929Z,16.17
2019-04-26T05:19:54.858Z,16.40
2019-04-26T05:22:35.440Z,16.18
2019-04-26T05:25:11.134Z,16.45
2019-04-26T05:27:44.344Z,16.51
2019-04-26T05:30:23.122Z,16.60
2019-04-26T05:33:18.667Z,16.63
2019-04-26T05:35:57.781Z,16.71
2019-04-26T05:38:41.347Z,16.55
2019-04-26T05:41:30.155Z,16.23
2019-04-26T05:44:17.980Z,15.59
2019-04-26T05:47:25.383Z,15.84
2019-04-26T05:50:30.051Z,16.37
2019-04-26T05:53:31.324Z,16.08
2019-04-26T05:56:22.639Z,16.77
2019-04-26T05:59:15.367Z,16.66
2019-04-26T06:02:34.543Z,16.51
2019-04-26T06:05:32.589Z,17.00
2019-04-26T06:08:31.534Z,17.16
2019-04-26T06:11:06.994Z,17.44
2019-04-26T06:13:49.197Z,16.69
2019-04-26T06:16:40.021Z,16.24
2019-04-26T06:19:19.117Z,16.82
2019-04-26T06:22:00.037Z,17.17
2019-04-26T06:24:46.585Z,16.64
2019-04-26T06:27:28.688Z,17.00
2019-04-26T06:30:12.155Z,17.00
2019-04-26T06:32:55.923Z,16.75
2019-04-26T06:35:20.414Z,16.76
2019-04-26T06:38:05.426Z,16.91
2019-04-26T06:41:00.198Z,17.15
2019-04-26T06:43:33.412Z,17.10
2019-04-26T06:46:38.025Z,17.57
2019-04-26T06:49:29.109Z,17.39
2019-04-26T06:52:12.718Z,17.66
2019-04-26T06:55:11.188Z,17.34
2019-04-26T06:57:59.980Z,17.60
2019-04-26T07:00:42.858Z,17.64
2019-04-26T07:03:29.562Z,17.55
2019-04-26T07:06:04.966Z,18.23
2019-04-26T07:08:57.309Z,18.37
2019-04-26T07:11:51.596Z,17.86
2019-04-26T07:14:42.292Z,17.95
2019-04-26T07:17:31.561Z,18.12
2019-04-26T07:20:21.662Z,18.69
2019-04-26T07:23:11.022Z,18.63
2019-04-26T07:26:15.462Z,18.27
2019-04-26T07:29:07.028Z,18.42
2019-04-26T07:31:57.842Z,18.41
2019-04-26T07:34:43.002Z,18.77
2019-04-26T07:37:43.261Z,18.43
2019-04-26T07:40:28.072Z,18.53
2019-04-26T07:43:26.670Z,18.75
2019-04-26T07:46:29.684Z,19.24
2019-04-26T07:49:13.459Z,18.44
2019-04-26T07:52:04.347Z,19.21
2019-04-26T07:55:08.698Z,19.21
2019-04-26T07:58:06.895Z,19.19
2019-04-26T08:00:44.999Z,19.21
2019-04-26T08:03:29.475Z,19.52
2019-04-26T08:06:15.843Z,18.88
2019-04-26T08:08:48.430Z,19.20
2019-04-26T08:11:22.627Z,19.27
2019-04-26T08:14:15.136Z,19.21
2019-04-26T08:16:54.101Z,18.74
2019-04-26T08:19:26.115Z,19.24
2019-04-26T08:22:11.459Z,19.89
2019-04-26T08:24:30.648Z,20.11
2019-04-26T08:27:13.416Z,20.12
2019-04-26T08:29:38.205Z,20.60
2019-04-26T08:32:11.730Z,20.56
2019-04-26T08:34:43.477Z,20.73
2019-04-26T08:37:36.610Z,20.15
2019-04-26T08:40:05.882Z,20.49
2019-04-26T08:42:37.645Z,20.06
2019-04-26T08:45:14.915Z,20.61
2019-04-26T08:47:50.854Z,20.94
2019-04-26T08:50:22.272Z,21.29
2019-04-26T08:52:52.734Z,21.07
2019-04-26T08:55:22.633Z,20.81
2019-04-26T08:57:54.266Z,20.96
2019-04-26T09:00:35.224Z,21.21
2019-04-26T09:03:11.717Z,21.71
2019-04-26T09:05:49.985Z,21.33
2019-04-26T09:08:20.419Z,21.21
2019-04-26T09:10:52.568Z,21.51
2019-04-26T09:13:24.163Z,21.87
2019-04-26T09:16:04.857Z,21.99
2019-04-26T09:18:43.004Z,21.78
2019-04-26T09:21:04.281Z,21.87
2019-04-26T09:23:40.181Z,21.28
2019-04-26T09:26:13.611Z,21.56
2019-04-26T09:28:43.982Z,22.17
2019-04-26T09:31:30.212Z,22.05
2019-04-26T09:34:12.240Z,21.82
2019-04-26T09:36:40.938Z,21.82
2019-04-26T09:39:11.299Z,21.68
2019-04-26T09:41:40.360Z,22.30
2019-04-26T09:44:10.630Z,22.24
2019-04-26T09:46:54.272Z,22.24
2019-04-26T09:49:30.645Z,22.45
2019-04-26T09:52:00.183Z,22.57
2019-04-26T09:54:28.815Z,22.37
2019-04-26T09:56:57.435Z,22.85
2019-04-26T09:59:26.259Z,22.17
2019-04-26T10:01:55.405Z,22.40
2019-04-26T10:04:25.433Z,22.66
2019-04-26T10:06:54.100Z,22.85
2019-04-26T10:09:24.191Z,23.18
2019-04-26T10:11:58.277Z,23.40
2019-04-26T10:14:28.577Z,22.76
2019-04-26T10:16:58.994Z,23.28
2019-04-26T10:19:45.489Z,23.24
2019-04-26T10:22:14.179Z,23.34
2019-04-26T10:24:42.875Z,23.10
2019-04-26T10:27:11.607Z,23.34
2019-04-26T10:29:40.304Z,22.90
2019-04-26T10:32:09.304Z,23.31
2019-04-26T10:34:38.035Z,23.84
2019-04-26T10:37:07.995Z,23.98
2019-04-26T10:39:37.103Z,23.48
2019-04-26T10:42:05.907Z,23.94
2019-04-26T10:44:35.774Z,23.47
2019-04-26T10:47:06.041Z,23.82
2019-04-26T10:49:46.400Z,24.15
2019-04-26T10:52:17.959Z,24.13
2019-04-26T10:55:04.454Z,24.54
2019-04-26T10:57:34.720Z,24.58
2019-04-26T11:00:04.983Z,24.18
2019-04-26T11:02:33.715Z,24.27
2019-04-26T11:05:02.406Z,24.57
2019-04-26T11:07:31.034Z,24.53
2019-04-26T11:10:02.818Z,24.92
2019-04-26T11:12:30.948Z,25.00
2019-04-26T11:14:59.684Z,24.46
2019-04-26T11:17:28.420Z,24.80
2019-04-26T11:19:57.132Z,24.89
2019-04-26T11:22:29.309Z,24.90
2019-04-26T11:24:56.406Z,24.71
2019-04-26T11:27:25.040Z,25.02
2019-04-26T11:29:54.284Z,25.29
2019-04-26T11:32:23.047Z,25.32
2019-04-26T11:34:54.562Z,25.09
2019-04-26T11:37:22.165Z,24.96
2019-04-26T11:39:50.924Z,25.16
2019-04-26T11:42:19.690Z,25.47
2019-04-26T11:44:48.394Z,25.16
2019-04-26T11:47:17.130Z,25.59
2019-04-26T11:49:45.825Z,25.98
2019-04-26T11:52:14.527Z,25.88
2019-04-26T11:54:43.271Z,25.78
2019-04-26T11:57:13.519Z,25.72
2019-04-26T11:59:42.355Z,25.58
2019-04-26T12:02:12.339Z,25.25
2019-04-26T12:04:43.073Z,25.73
2019-04-26T12:07:29.596Z,25.87
2019-04-26T12:09:59.856Z,26.26
2019-04-26T12:12:28.553Z,26.20
2019-04-26T12:14:58.123Z,26.30
2019-04-26T12:17:27.179Z,26.39
2019-04-26T12:19:55.902Z,26.11
2019-04-26T12:22:24.634Z,26.47
2019-04-26T12:24:53.336Z,25.85
2019-04-26T12:27:22.240Z,25.56
2019-04-26T12:29:51.007Z,25.48
2019-04-26T12:32:19.706Z,25.75
2019-04-26T12:34:48.406Z,25.79
2019-04-26T12:37:19.861Z,25.23
2019-04-26T12:39:47.552Z,25.68
2019-04-26T12:42:16.756Z,25.34
2019-04-26T12:44:49.769Z,26.07
2019-04-26T12:47:25.739Z,25.25
2019-04-26T12:49:58.549Z,24.96
2019-04-26T12:52:24.817Z,25.31
2019-04-26T12:54:53.515Z,25.48
2019-04-26T12:57:23.183Z,25.93
2019-04-26T12:59:51.881Z,25.59
2019-04-26T13:02:21.865Z,25.43
2019-04-26T13:04:50.616Z,25.39
2019-04-26T13:07:23.959Z,25.46
2019-04-26T13:10:09.142Z,25.41
2019-04-26T13:12:39.405Z,25.34
2019-04-26T13:16:02.925Z,25.18
2019-04-26T13:18:32.121Z,25.45
2019-04-26T13:21:02.973Z,25.81
2019-04-26T13:23:31.420Z,25.44
2019-04-26T13:26:01.561Z,26.13
2019-04-26T13:28:30.314Z,26.14
2019-04-26T13:31:02.031Z,25.88
2019-04-26T13:33:29.408Z,25.83
2019-04-26T13:36:05.412Z,25.48
2019-04-26T13:38:28.489Z,26.20
2019-04-26T13:40:59.646Z,26.09
2019-04-26T13:43:28.777Z,26.12
2019-04-26T13:46:15.376Z,26.21
2019-04-26T13:48:51.589Z,25.90
2019-04-26T13:51:33.965Z,26.29
2019-04-26T13:54:02.666Z,26.44
2019-04-26T13:56:32.058Z,25.70
2019-04-26T13:59:01.746Z,25.81
2019-04-26T14:01:30.438Z,25.86
2019-04-26T14:04:02.426Z,26.24
2019-04-26T14:06:29.644Z,26.37
2019-04-26T14:09:02.724Z,26.48
2019-04-26T14:11:29.581Z,25.80
2019-04-26T14:14:00.150Z,26.04
2019-04-26T14:16:29.559Z,26.05
2019-04-26T14:18:58.258Z,26.16
2019-04-26T14:21:29.140Z,26.21
2019-04-26T14:24:14.079Z,26.34
2019-04-26T14:26:44.372Z,26.46
2019-04-26T14:29:12.997Z,26.49
2019-04-26T14:31:41.699Z,26.60
2019-04-26T14:34:12.037Z,26.67
2019-04-26T14:36:43.606Z,26.11
2019-04-26T14:39:14.898Z,26.08
2019-04-26T14:41:41.892Z,26.35
2019-04-26T14:44:15.609Z,26.48
2019-04-26T14:46:48.561Z,26.55
2019-04-26T14:49:11.453Z,26.40
2019-04-26T14:51:40.690Z,26.13
2019-04-26T14:54:11.540Z,26.50
2019-04-26T14:56:51.765Z,25.97
2019-04-26T14:59:11.889Z,26.39
2019-04-26T15:01:45.427Z,26.69
2019-04-26T15:04:33.066Z,26.70
2019-04-26T15:07:04.005Z,26.41
2019-04-26T15:09:34.700Z,26.53
2019-04-26T15:12:03.526Z,26.58
2019-04-26T15:14:33.255Z,26.75
2019-04-26T15:17:02.897Z,26.38
2019-04-26T15:19:34.896Z,25.81
2019-04-26T15:22:04.106Z,26.22
2019-04-26T15:24:35.164Z,26.25
2019-04-26T15:27:03.365Z,26.47
2019-04-26T15:29:32.602Z,25.76
2019-04-26T15:32:04.819Z,25.54
2019-04-26T15:34:31.650Z,25.22
2019-04-26T15:37:00.379Z,26.06
2019-04-26T15:39:36.526Z,25.83
2019-04-26T15:42:18.955Z,26.10
2019-04-26T15:45:04.323Z,25.47
2019-04-26T15:47:34.644Z,25.80
2019-04-26T15:50:10.043Z,25.97
2019-04-26T15:52:38.562Z,25.32
2019-04-26T15:55:07.399Z,24.87
2019-04-26T15:57:36.107Z,25.10
2019-04-26T16:00:07.201Z,25.30
2019-04-26T16:02:36.093Z,25.40
2019-04-26T16:05:06.293Z,25.16
2019-04-26T16:07:35.003Z,25.17
2019-04-26T16:10:04.532Z,25.26
2019-04-26T16:12:33.238Z,25.39
2019-04-26T16:15:02.405Z,25.26
2019-04-26T16:17:31.251Z,25.30
2019-04-26T16:20:01.833Z,25.11
2019-04-26T16:22:32.750Z,25.00
2019-04-26T16:25:04.063Z,24.92
2019-04-26T16:27:34.174Z,24.81
2019-04-26T16:30:06.410Z,24.73
2019-04-26T16:32:39.659Z,24.56
2019-04-26T16:35:08.362Z,24.55
2019-04-26T16:37:37.096Z,24.58
2019-04-26T16:40:07.912Z,24.55
2019-04-26T16:42:37.808Z,24.42
2019-04-26T16:45:08.434Z,24.34
2019-04-26T16:47:44.990Z,23.78
2019-04-26T16:50:08.434Z,24.01
2019-04-26T16:52:42.276Z,24.02
2019-04-26T16:55:18.302Z,23.98
2019-04-26T16:57:44.006Z,23.89
2019-04-26T17:00:08.765Z,23.82
2019-04-26T17:02:37.499Z,23.72
2019-04-26T17:05:19.204Z,23.74
2019-04-26T17:07:39.414Z,23.69
2019-04-26T17:10:08.197Z,23.65
2019-04-26T17:12:36.965Z,23.69
2019-04-26T17:15:07.804Z,23.58
2019-04-26T17:17:36.493Z,23.53
2019-04-26T17:20:10.860Z,23.46
2019-04-26T17:22:58.586Z,23.26
2019-04-26T17:25:26.872Z,23.33
2019-04-26T17:27:54.533Z,23.34
2019-04-26T17:30:24.796Z,23.32
2019-04-26T17:32:55.194Z,23.27
2019-04-26T17:35:25.399Z,23.24
2019-04-26T17:37:57.390Z,23.15
2019-04-26T17:40:25.437Z,23.18
2019-04-26T17:42:55.137Z,23.09
2019-04-26T17:45:23.762Z,23.41
2019-04-26T17:47:52.982Z,23.25
2019-04-26T17:50:21.821Z,23.15
2019-04-26T17:52:51.566Z,23.10
2019-04-26T17:55:20.398Z,22.83
2019-04-26T17:57:50.674Z,22.79
2019-04-26T18:00:27.469Z,22.42
2019-04-26T18:02:51.720Z,22.53
2019-04-26T18:05:23.188Z,22.48
2019-04-26T18:07:58.375Z,22.55
2019-04-26T18:10:21.715Z,22.54
2019-04-26T18:12:50.852Z,22.23
2019-04-26T18:15:19.705Z,22.31
2019-04-26T18:17:53.171Z,22.33
2019-04-26T18:20:33.538Z,22.18
2019-04-26T18:23:10.084Z,22.18
2019-04-26T18:25:37.235Z,22.14
2019-04-26T18:28:08.768Z,22.04
2019-04-26T18:30:36.356Z,22.05
2019-04-26T18:33:05.235Z,21.99
2019-04-26T18:35:33.941Z,21.96
2019-04-26T18:38:03.735Z,21.97
2019-04-26T18:40:38.989Z,21.92
2019-04-26T18:43:03.394Z,21.86
2019-04-26T18:45:32.188Z,21.84
2019-04-26T18:48:01.941Z,21.75
2019-04-26T18:50:32.833Z,21.65
2019-04-26T18:53:03.531Z,21.69
2019-04-26T18:55:34.484Z,21.63
2019-04-26T18:58:06.145Z,21.59
2019-04-26T19:00:36.507Z,21.56
2019-04-26T19:03:05.977Z,21.48
2019-04-26T19:05:34.767Z,21.36
2019-04-26T19:08:05.137Z,21.32
2019-04-26T19:10:34.450Z,21.23
2019-04-26T19:13:07.800Z,21.29
2019-04-26T19:15:44.026Z,21.31
2019-04-26T19:18:32.124Z,21.28
2019-04-26T19:21:11.562Z,21.31
2019-04-26T19:23:41.550Z,21.23
2019-04-26T19:26:13.748Z,21.18
2019-04-26T19:28:42.912Z,21.11
2019-04-26T19:31:12.779Z,21.10
2019-04-26T19:33:42.821Z,21.22
2019-04-26T19:36:13.580Z,21.11
2019-04-26T19:38:45.182Z,21.04
2019-04-26T19:41:12.771Z,20.94
2019-04-26T19:43:43.653Z,20.95
2019-04-26T19:46:17.105Z,20.96
2019-04-26T19:49:03.357Z,20.88
2019-04-26T19:51:36.531Z,20.87
2019-04-26T19:54:06.832Z,20.87
2019-04-26T19:56:37.102Z,20.76
2019-04-26T19:59:05.802Z,20.82
2019-04-26T20:01:34.635Z,20.81
2019-04-26T20:04:03.270Z,20.80
2019-04-26T20:06:32.202Z,20.64
2019-04-26T20:09:02.437Z,20.66
2019-04-26T20:11:31.691Z,20.61
2019-04-26T20:14:01.125Z,20.59
2019-04-26T20:16:32.457Z,20.57
2019-04-26T20:19:01.385Z,20.50
2019-04-26T20:21:32.614Z,20.48
2019-04-26T20:24:01.308Z,20.45
2019-04-26T20:26:31.502Z,20.40
2019-04-26T20:29:00.278Z,20.43
2019-04-26T20:31:30.751Z,20.31
2019-04-26T20:34:01.535Z,20.39
2019-04-26T20:36:37.181Z,20.33
2019-04-26T20:39:01.777Z,20.32
2019-04-26T20:41:32.209Z,20.35
2019-04-26T20:44:07.346Z,20.29
2019-04-26T20:46:34.351Z,20.31
2019-04-26T20:49:07.843Z,20.25
2019-04-26T20:51:32.391Z,20.26
2019-04-26T20:54:02.033Z,20.25
2019-04-26T20:56:31.775Z,20.28
2019-04-26T20:59:01.545Z,20.21
2019-04-26T21:01:32.012Z,19.94
2019-04-26T21:04:02.030Z,19.87
2019-04-26T21:06:33.880Z,19.76
2019-04-26T21:09:03.287Z,19.98
2019-04-26T21:11:37.237Z,19.77
2019-04-26T21:14:07.495Z,19.88
2019-04-26T21:16:32.581Z,19.94
2019-04-26T21:19:01.843Z,19.77
2019-04-26T21:21:32.105Z,19.85
2019-04-26T21:24:03.651Z,19.88
2019-04-26T21:26:51.418Z,19.81
2019-04-26T21:29:31.677Z,19.79
2019-04-26T21:32:21.935Z,19.88
2019-04-26T21:34:53.839Z,19.88
2019-04-26T21:37:30.182Z,19.92
2019-04-26T21:40:16.158Z,19.86
2019-04-26T21:42:45.081Z,19.78
2019-04-26T21:45:13.449Z,19.70
2019-04-26T21:47:43.480Z,19.83
2019-04-26T21:50:13.559Z,19.81
2019-04-26T21:52:43.337Z,19.75
2019-04-26T21:55:12.867Z,19.65
2019-04-26T21:57:41.565Z,19.72
2019-04-26T22:00:28.421Z,19.71
2019-04-26T22:02:57.234Z,19.62
2019-04-26T22:05:25.932Z,19.55
2019-04-26T22:07:54.672Z,19.45
2019-04-26T22:10:33.851Z,19.38
2019-04-26T22:13:05.662Z,19.43
2019-04-26T22:15:43.806Z,19.52
2019-04-26T22:18:30.673Z,19.40
2019-04-26T22:21:03.659Z,19.32
2019-04-26T22:23:53.184Z,19.31
2019-04-26T22:26:23.678Z,19.16
2019-04-26T22:28:53.385Z,19.12
2019-04-26T22:31:23.716Z,19.19
2019-04-26T22:33:52.812Z,19.21
2019-04-26T22:36:23.336Z,19.21
2019-04-26T22:38:55.631Z,19.11
2019-04-26T22:41:24.378Z,18.99
2019-04-26T22:43:55.259Z,19.05
2019-04-26T22:46:44.409Z,19.09
2019-04-26T22:49:05.778Z,19.10
2019-04-26T22:51:37.077Z,19.04
2019-04-26T22:54:06.219Z,18.67
2019-04-26T22:56:37.222Z,18.90
2019-04-26T22:59:07.626Z,19.05
2019-04-26T23:01:39.301Z,19.10
2019-04-26T23:04:05.737Z,19.11
2019-04-26T23:06:34.433Z,18.98
2019-04-26T23:09:03.157Z,19.10
2019-04-26T23:11:33.314Z,19.03
2019-04-26T23:14:19.770Z,19.01
2019-04-26T23:17:05.900Z,19.01
2019-04-26T23:19:28.295Z,18.96
2019-04-26T23:21:58.575Z,18.96
2019-04-26T23:24:27.254Z,18.89
2019-04-26T23:26:56.010Z,18.86
2019-04-26T23:29:24.701Z,18.86
2019-04-26T23:31:55.363Z,18.89
2019-04-26T23:34:25.232Z,18.89
2019-04-26T23:36:54.157Z,18.77
2019-04-26T23:39:24.558Z,18.79
2019-04-26T23:41:53.956Z,18.77
2019-04-26T23:44:23.260Z,18.74
2019-04-26T23:46:54.872Z,18.72
2019-04-26T23:49:23.317Z,18.65
2019-04-26T23:51:53.333Z,18.65
2019-04-26T23:54:23.720Z,18.66
2019-04-26T23:56:55.748Z,18.67
2019-04-26T23:59:24.672Z,18.61
